ADDS METAR Data INFO
IDs: Format: Raw Decoded Include TAF

Data at: 2050 UTC 19 Jul 2018

KRSL 191953Z AUTO 06013KT 10SM CLR 32/22 A2987 RMK AO2 LTG DSNT NW SLP093 T03220222
KRSL 191853Z AUTO 03013KT 10SM SCT046 SCT055 32/25 A2989 RMK AO2 SLP100 T03220250
KRSL 191753Z AUTO 34008KT 10SM CLR 33/23 A2989 RMK AO2 SLP098 T03330233 10333 20222 55002
KRSL 191653Z AUTO 26009KT 10SM CLR 32/23 A2987 RMK AO2 LTG DSNT N AND NE SLP091 T03170233
KRSL 191553Z AUTO 28006KT 10SM CLR 31/23 A2989 RMK AO2 SLP101 T03060233
KRSL 191453Z AUTO 23011KT 10SM CLR 28/22 A2989 RMK AO2 SLP102 T02830222 53001
KRSL 191353Z AUTO 22011KT 10SM CLR 26/22 A2989 RMK AO2 SLP101 T02560222
KRSL 191253Z AUTO 22010KT 10SM CLR 23/22 A2989 RMK AO2 SLP101 T02330217
KRSL 191153Z AUTO 21010KT 9SM CLR 22/22 A2989 RMK AO2 SLP101 T02220217 10239 20217 55002
KRSL 191053Z AUTO 20009KT 10SM CLR 22/22 A2989 RMK AO2 SLP101 T02220222
KRSL 190953Z AUTO 21009KT 10SM CLR 22/22 A2989 RMK AO2 SLP104 T02220222
KRSL 190753Z AUTO 19005KT 10SM CLR 24/23 A2990 RMK AO2 SLP107 T02390233
KRSL 190653Z AUTO 16007KT 10SM CLR 24/24 A2991 RMK AO2 SLP108 T02390239
KRSL 190553Z AUTO 12006KT 10SM CLR 24/24 A2992 RMK AO2 SLP117 T02390239 10300 20239 403060217 53010
KRSL 190453Z AUTO 14006KT 10SM CLR 25/24 A2991 RMK AO2 SLP111 T02500239
KRSL 190353Z AUTO 13008KT 10SM CLR 26/24 A2990 RMK AO2 SLP107 T02560239
KRSL 190253Z AUTO 13009KT 10SM CLR 26/24 A2989 RMK AO2 SLP106 T02610239 56009
KRSL 190153Z AUTO 11006KT 10SM CLR 27/24 A2990 RMK AO2 SLP107 T02720239
KRSL 190053Z AUTO 11007KT 10SM CLR 29/23 A2991 RMK AO2 SLP109 T02890233
KRSL 182353Z AUTO 10007KT 10SM FEW034 29/23 A2992 RMK AO2 SLP113 T02940233 10306 20244 58011
KRSL 182253Z AUTO 11008KT 10SM BKN040 30/23 A2993 RMK AO2 SLP117 T03000233
KRSL 182153Z AUTO 10SM SCT040 31/23 A2995 RMK AO2 SLP122 T03060233
KRSL 182053Z AUTO 15007KT 10SM BKN032 29/24 A2996 RMK AO2 SLP125 T02940239 56011
KRSL 181953Z AUTO 12008KT 10SM FEW028 29/24 A2996 RMK AO2 SLP127 T02890239
KRSL 181853Z AUTO 18011KT 10SM CLR 28/24 A2996 RMK AO2 SLP128 T02780239
KRSL 181753Z AUTO 12007KT 10SM FEW011 24/23 A2999 RMK AO2 WSHFT 1701 SLP140 T02440228 10244 20217 58014
KRSL 181716Z AUTO 12017G20KT 10SM SCT007 24/23 A2996 RMK AO2 WSHFT 1701 PRESFR T02390228
KRSL 181704Z AUTO 09012KT 10SM OVC006 24/23 A3000 RMK AO2 CIG 003V010 PRESFR T02390228
KRSL 181653Z AUTO 07012KT 8SM OVC004 23/23 A3002 RMK AO2 CIG 003V008 PRESFR SLP152 T02330228
KRSL 181627Z AUTO 03012KT 6SM BR OVC004 23/23 A3005 RMK AO2 T02280228
KRSL 181553Z AUTO 02012KT 4SM BR OVC003 23/23 A3006 RMK AO2 LTG DSNT N SLP163 T02280228
KRSL 181520Z AUTO 02011KT 3SM BR OVC002 22/22 A3005 RMK AO2 LTG DSNT N AND NW T02220222
KRSL 181513Z AUTO 04010KT 1 1/2SM BR OVC002 22/22 A3004 RMK AO2 LTG DSNT N AND NW T02220222
KRSL 181453Z AUTO 06007KT 2SM BR OVC002 22/22 A3003 RMK AO2 VIS 1 1/4V3 SLP156 T02170217 53007
KRSL 181442Z AUTO 04008KT 1SM BR OVC002 22/22 A3003 RMK AO2 T02170217
KRSL 181353Z AUTO 06009KT 1/4SM FG VV002 22/22 A3002 RMK AO2 SLP149 T02170217
KRSL 181253Z AUTO 05009KT 1/4SM FG VV002 22/22 A3002 RMK AO2 SLP147 T02220222
KRSL 181236Z AUTO 04008KT 1/4SM FG VV002 22/22 A3002 RMK AO2 T02220222
KRSL 181228Z AUTO 06007KT 1SM BR OVC002 22/22 A3002 RMK AO2 T02220222
KRSL 181153Z AUTO 06008KT 1/4SM FG VV002 22/22 A3001 RMK AO2 SLP144 70067 T02220222 10228 20222 55005
KRSL 181103Z AUTO 08005KT 3/4SM BR VV002 22/22 A3000 RMK AO2 T02220222
KRSL 181053Z AUTO 08006KT 1SM BR VV002 22/22 A3000 RMK AO2 SLP140 T02220222
KRSL 181036Z AUTO 10006KT 1 1/2SM BR OVC002 22/22 A3000 RMK AO2 T02220222
KRSL 181023Z AUTO 09006KT 2 1/2SM BR OVC003 22/22 A3000 RMK AO2 T02220222
KRSL 180953Z AUTO 10006KT 3SM BR OVC003 22/22 A3001 RMK AO2 SLP142 T02220222
KRSL 180913Z AUTO 12006KT 4SM BR OVC003 22/22 A3002 RMK AO2 T02220222
KRSL 180853Z AUTO 11007KT 4SM BR OVC004 22/22 A3003 RMK AO2 SLP150 T02220222 55003